createdAt,value
2019-05-25T00:02:20.825Z,12.80
2019-05-25T00:04:53.818Z,12.70
2019-05-25T00:07:26.796Z,12.70
2019-05-25T00:09:59.578Z,12.50
2019-05-25T00:12:32.544Z,12.40
2019-05-25T00:15:05.864Z,12.40
2019-05-25T00:17:39.061Z,12.60
2019-05-25T00:20:11.965Z,12.50
2019-05-25T00:22:45.183Z,12.40
2019-05-25T00:25:18.129Z,12.30
2019-05-25T00:27:51.061Z,12.30
2019-05-25T00:30:23.818Z,12.30
2019-05-25T00:32:56.618Z,12.30
2019-05-25T00:35:29.589Z,12.40
2019-05-25T00:38:02.396Z,12.30
2019-05-25T00:40:35.324Z,12.40
2019-05-25T00:43:08.293Z,12.40
2019-05-25T00:45:41.814Z,12.20
2019-05-25T00:48:15.249Z,12.20
2019-05-25T00:50:48.485Z,12.20
2019-05-25T00:53:21.349Z,12.20
2019-05-25T00:55:54.578Z,12.20
2019-05-25T00:58:27.343Z,12.10
2019-05-25T01:01:00.870Z,12.00
2019-05-25T01:03:34.038Z,12.00
2019-05-25T01:06:07.960Z,12.00
2019-05-25T01:08:41.258Z,12.00
2019-05-25T01:11:14.638Z,11.80
2019-05-25T01:13:47.794Z,11.90
2019-05-25T01:16:20.693Z,11.90
2019-05-25T01:18:53.684Z,11.90
2019-05-25T01:21:26.608Z,12.00
2019-05-25T01:23:59.428Z,11.90
2019-05-25T01:26:32.593Z,12.00
2019-05-25T01:29:05.504Z,12.00
2019-05-25T01:31:39.003Z,11.90
2019-05-25T01:34:12.011Z,11.80
2019-05-25T01:36:44.985Z,11.90
2019-05-25T01:39:17.773Z,11.90
2019-05-25T01:41:50.696Z,11.90
2019-05-25T01:44:23.640Z,11.80
2019-05-25T01:46:56.373Z,11.90
2019-05-25T01:49:29.268Z,11.80
2019-05-25T01:52:02.466Z,11.90
2019-05-25T01:54:35.275Z,11.80
2019-05-25T01:57:08.143Z,11.80
2019-05-25T01:59:40.874Z,11.80
2019-05-25T02:02:13.768Z,11.70
2019-05-25T02:04:46.628Z,11.70
2019-05-25T02:07:19.520Z,11.60
2019-05-25T02:09:52.859Z,11.50
2019-05-25T02:12:25.878Z,11.60
2019-05-25T02:14:58.654Z,11.80
2019-05-25T02:17:31.593Z,11.80
2019-05-25T02:20:04.311Z,11.90
2019-05-25T02:22:37.086Z,11.90
2019-05-25T02:25:17.495Z,11.60
2019-05-25T02:27:44.753Z,11.60
2019-05-25T02:30:17.537Z,11.60
2019-05-25T02:32:50.329Z,11.50
2019-05-25T02:35:23.275Z,11.40
2019-05-25T02:37:56.180Z,11.40
2019-05-25T02:40:29.830Z,11.30
2019-05-25T02:43:02.689Z,11.20
2019-05-25T02:45:35.678Z,11.20
2019-05-25T02:48:08.964Z,11.30
2019-05-25T02:50:41.860Z,11.20
2019-05-25T02:53:15.405Z,11.40
2019-05-25T02:55:48.143Z,11.40
2019-05-25T02:58:20.997Z,11.50
2019-05-25T03:00:54.050Z,11.30
2019-05-25T03:03:27.028Z,11.20
2019-05-25T03:05:59.945Z,11.10
2019-05-25T03:08:32.933Z,11.00
2019-05-25T03:11:05.744Z,11.20
2019-05-25T03:13:39.404Z,11.20
2019-05-25T03:16:12.228Z,11.20
2019-05-25T03:18:45.089Z,11.20
2019-05-25T03:21:18.068Z,11.30
2019-05-25T03:23:51.003Z,11.30
2019-05-25T03:26:24.328Z,11.30
2019-05-25T03:28:57.280Z,11.20
2019-05-25T03:31:30.466Z,11.20
2019-05-25T03:34:03.309Z,11.20
2019-05-25T03:36:36.150Z,11.20
2019-05-25T03:39:09.119Z,11.20
2019-05-25T03:41:42.144Z,11.20
2019-05-25T03:44:15.004Z,11.20
2019-05-25T03:46:48.223Z,11.30
2019-05-25T03:49:21.648Z,11.10
2019-05-25T03:51:54.464Z,11.20
2019-05-25T03:54:27.423Z,11.40
2019-05-25T03:57:00.259Z,11.50
2019-05-25T03:59:33.341Z,11.60
2019-05-25T04:02:06.048Z,11.50
2019-05-25T04:04:39.025Z,11.60
2019-05-25T04:07:12.324Z,11.60
2019-05-25T04:09:45.583Z,11.60
2019-05-25T04:12:18.828Z,11.50
2019-05-25T04:14:51.659Z,11.50
2019-05-25T04:17:24.525Z,11.50
2019-05-25T04:19:57.419Z,11.40
2019-05-25T04:22:30.383Z,11.50
2019-05-25T04:25:03.113Z,11.50
2019-05-25T04:27:35.964Z,11.50
2019-05-25T04:30:09.229Z,11.50
2019-05-25T04:32:42.304Z,11.70
2019-05-25T04:35:15.174Z,11.80
2019-05-25T04:37:48.374Z,11.80
2019-05-25T04:40:23.075Z,11.90
2019-05-25T04:42:55.954Z,11.80
2019-05-25T04:45:29.176Z,11.70
2019-05-25T04:48:01.997Z,11.70
2019-05-25T04:50:35.193Z,11.60
2019-05-25T04:53:08.034Z,11.60
2019-05-25T04:55:41.159Z,11.60
2019-05-25T04:58:13.973Z,11.60
2019-05-25T05:00:46.851Z,11.60
2019-05-25T05:03:19.503Z,11.60
2019-05-25T05:05:52.382Z,11.70
2019-05-25T05:08:25.693Z,11.80
2019-05-25T05:10:58.555Z,11.90
2019-05-25T05:13:31.734Z,11.90
2019-05-25T05:16:04.569Z,11.90
2019-05-25T05:18:37.334Z,12.00
2019-05-25T05:21:10.628Z,12.00
2019-05-25T05:23:43.514Z,12.20
2019-05-25T05:26:16.281Z,12.30
2019-05-25T05:28:49.291Z,12.30
2019-05-25T05:31:23.896Z,12.40
2019-05-25T05:33:57.663Z,12.50
2019-05-25T05:36:30.435Z,12.60
2019-05-25T05:39:03.753Z,12.70
2019-05-25T05:41:36.956Z,12.70
2019-05-25T05:44:09.748Z,12.80
2019-05-25T05:46:43.040Z,12.90
2019-05-25T05:49:15.884Z,13.00
2019-05-25T05:51:48.694Z,13.10
2019-05-25T05:54:21.529Z,13.10
2019-05-25T05:57:10.755Z,13.10
2019-05-25T05:59:29.594Z,13.10
2019-05-25T06:02:02.869Z,13.10
2019-05-25T06:04:35.989Z,13.10
2019-05-25T06:07:08.798Z,13.20
2019-05-25T06:09:41.748Z,13.20
2019-05-25T06:12:15.190Z,13.30
2019-05-25T06:14:48.165Z,13.40
2019-05-25T06:17:21.207Z,13.50
2019-05-25T06:19:54.069Z,13.50
2019-05-25T06:22:26.933Z,13.60
2019-05-25T06:24:59.836Z,13.60
2019-05-25T06:27:32.609Z,13.80
2019-05-25T06:30:05.409Z,13.90
2019-05-25T06:32:38.400Z,14.00
2019-05-25T06:35:11.910Z,14.10
2019-05-25T06:37:44.915Z,14.30
2019-05-25T06:40:17.695Z,14.50
2019-05-25T06:42:50.523Z,14.70
2019-05-25T06:45:23.356Z,14.80
2019-05-25T06:47:56.122Z,14.90
2019-05-25T06:50:32.467Z,14.80
2019-05-25T06:53:07.322Z,14.90
2019-05-25T06:55:40.145Z,15.20
2019-05-25T06:58:12.978Z,15.80
2019-05-25T07:00:45.797Z,16.20
2019-05-25T07:03:18.871Z,16.60
2019-05-25T07:05:51.670Z,16.80
2019-05-25T07:08:24.563Z,17.00
2019-05-25T07:10:57.258Z,17.20
2019-05-25T07:13:30.520Z,17.60
2019-05-25T07:16:03.266Z,17.80
2019-05-25T07:18:36.788Z,18.10
2019-05-25T07:21:09.980Z,18.40
2019-05-25T07:23:42.815Z,18.50
2019-05-25T07:26:15.648Z,18.80
2019-05-25T07:28:48.444Z,19.20
2019-05-25T07:31:21.883Z,19.30
2019-05-25T07:33:54.756Z,19.70
2019-05-25T07:36:27.578Z,20.00
2019-05-25T07:39:01.135Z,19.90
2019-05-25T07:41:34.453Z,19.70
2019-05-25T07:44:07.203Z,20.30
2019-05-25T07:46:40.629Z,20.40
2019-05-25T07:49:13.593Z,20.40
2019-05-25T07:51:46.478Z,20.60
2019-05-25T07:54:19.878Z,20.70
2019-05-25T07:56:52.948Z,20.60
2019-05-25T07:59:26.408Z,20.70
2019-05-25T08:01:59.233Z,20.70
2019-05-25T08:04:32.139Z,21.00
2019-05-25T08:07:04.916Z,21.20
2019-05-25T08:09:38.133Z,21.10
2019-05-25T08:12:11.008Z,21.40
2019-05-25T08:14:45.141Z,21.40
2019-05-25T08:17:18.303Z,21.60
2019-05-25T08:19:51.315Z,21.70
2019-05-25T08:22:24.174Z,21.80
2019-05-25T08:24:57.211Z,21.70
2019-05-25T08:27:30.451Z,22.10
2019-05-25T08:30:03.759Z,22.40
2019-05-25T08:32:37.516Z,22.50
2019-05-25T08:35:10.473Z,22.10
2019-05-25T08:37:43.412Z,22.20
2019-05-25T08:40:16.192Z,22.40
2019-05-25T08:42:49.197Z,22.00
2019-05-25T08:45:25.320Z,22.20
2019-05-25T08:47:57.384Z,22.10
2019-05-25T08:50:38.294Z,22.40
2019-05-25T08:53:06.085Z,22.70
2019-05-25T08:55:39.520Z,22.70
2019-05-25T08:58:12.408Z,21.70
2019-05-25T09:00:45.365Z,21.20
2019-05-25T09:03:18.149Z,21.30
2019-05-25T09:05:51.013Z,22.00
2019-05-25T09:08:24.116Z,22.30
2019-05-25T09:10:57.136Z,21.70
2019-05-25T09:13:30.085Z,21.90
2019-05-25T09:16:02.833Z,21.60
2019-05-25T09:18:35.705Z,21.80
2019-05-25T09:21:08.688Z,22.10
2019-05-25T09:23:42.108Z,22.10
2019-05-25T09:26:15.269Z,22.50
2019-05-25T09:29:01.648Z,22.20
2019-05-25T09:31:22.868Z,22.10
2019-05-25T09:33:55.592Z,22.80
2019-05-25T09:36:28.662Z,22.50
2019-05-25T09:39:01.507Z,23.10
2019-05-25T09:41:34.359Z,22.80
2019-05-25T09:44:07.353Z,22.90
2019-05-25T09:46:40.272Z,23.10
2019-05-25T09:49:13.202Z,23.70
2019-05-25T09:51:48.634Z,23.60
2019-05-25T09:54:20.790Z,23.60
2019-05-25T09:56:53.743Z,23.90
2019-05-25T09:59:27.009Z,23.90
2019-05-25T10:01:59.953Z,24.10
2019-05-25T10:04:32.702Z,24.20
2019-05-25T10:07:05.746Z,24.10
2019-05-25T10:09:40.219Z,23.80
2019-05-25T10:12:16.215Z,24.00
2019-05-25T10:14:47.516Z,23.80
2019-05-25T10:17:20.292Z,23.20
2019-05-25T10:19:53.230Z,23.80
2019-05-25T10:22:26.151Z,24.00
2019-05-25T10:24:59.141Z,23.70
2019-05-25T10:27:34.147Z,23.80
2019-05-25T10:30:06.573Z,23.80
2019-05-25T10:32:39.599Z,23.80
2019-05-25T10:35:12.666Z,24.30
2019-05-25T10:37:45.908Z,24.50
2019-05-25T10:40:18.775Z,24.30
2019-05-25T10:42:51.672Z,23.80
2019-05-25T10:45:25.003Z,23.70
2019-05-25T10:47:58.628Z,23.30
2019-05-25T10:50:31.319Z,23.90
2019-05-25T10:53:04.098Z,24.40
2019-05-25T10:55:36.854Z,24.90
2019-05-25T10:58:09.673Z,24.40
2019-05-25T11:00:42.558Z,24.70
2019-05-25T11:03:15.473Z,23.90
2019-05-25T11:05:48.307Z,23.30
2019-05-25T11:08:21.244Z,23.10
2019-05-25T11:10:53.856Z,23.10
2019-05-25T11:13:26.623Z,23.10
2019-05-25T11:15:59.469Z,22.70
2019-05-25T11:18:33.246Z,23.00
2019-05-25T11:21:05.961Z,22.70
2019-05-25T11:23:38.808Z,22.70
2019-05-25T11:26:11.761Z,22.80
2019-05-25T11:28:44.817Z,23.20
2019-05-25T11:31:17.851Z,23.90
2019-05-25T11:33:52.046Z,23.90
2019-05-25T11:36:25.115Z,23.50
2019-05-25T11:38:57.904Z,23.20
2019-05-25T11:41:31.188Z,23.00
2019-05-25T11:44:04.061Z,22.60
2019-05-25T11:46:36.793Z,22.20
2019-05-25T11:49:22.231Z,22.20
2019-05-25T11:51:44.290Z,22.30
2019-05-25T11:54:17.238Z,22.50
2019-05-25T11:56:49.844Z,22.10
2019-05-25T11:59:22.725Z,21.80
2019-05-25T12:01:55.808Z,22.40
2019-05-25T12:04:28.516Z,23.40
2019-05-25T12:07:01.377Z,23.50
2019-05-25T12:09:34.180Z,24.00
2019-05-25T12:12:06.855Z,24.20
2019-05-25T12:14:39.740Z,24.30
2019-05-25T12:17:12.795Z,24.30
2019-05-25T12:19:45.689Z,24.60
2019-05-25T12:22:18.523Z,24.80
2019-05-25T12:24:51.353Z,24.90
2019-05-25T12:27:24.183Z,24.70
2019-05-25T12:29:56.957Z,23.70
2019-05-25T12:32:29.790Z,23.10
2019-05-25T12:35:02.716Z,22.90
2019-05-25T12:37:36.242Z,22.70
2019-05-25T12:40:09.526Z,22.60
2019-05-25T12:42:45.655Z,22.50
2019-05-25T12:45:17.092Z,22.70
2019-05-25T12:47:49.978Z,23.10
2019-05-25T12:50:22.803Z,23.20
2019-05-25T12:52:55.531Z,23.30
2019-05-25T12:55:28.613Z,23.80
2019-05-25T12:58:01.406Z,23.70
2019-05-25T13:00:34.233Z,23.60
2019-05-25T13:03:10.819Z,23.60
2019-05-25T13:05:42.065Z,23.80
2019-05-25T13:08:15.069Z,24.20
2019-05-25T13:10:48.261Z,23.80
2019-05-25T13:13:21.107Z,23.90
2019-05-25T13:15:53.726Z,24.30
2019-05-25T13:18:26.711Z,24.40
2019-05-25T13:20:59.933Z,24.60
2019-05-25T13:23:32.725Z,24.50
2019-05-25T13:26:05.539Z,24.30
2019-05-25T13:28:38.380Z,24.40
2019-05-25T13:31:12.217Z,24.70
2019-05-25T13:33:45.576Z,24.50
2019-05-25T13:36:18.803Z,23.70
2019-05-25T13:38:51.731Z,23.00
2019-05-25T13:41:24.637Z,22.70
2019-05-25T13:43:57.451Z,22.80
2019-05-25T13:46:30.303Z,22.90
2019-05-25T13:49:03.054Z,23.30
2019-05-25T13:51:36.418Z,23.70
2019-05-25T13:54:09.223Z,23.30
2019-05-25T13:56:42.003Z,23.10
2019-05-25T13:59:14.652Z,23.10
2019-05-25T14:01:47.444Z,22.80
2019-05-25T14:04:20.217Z,22.50
2019-05-25T14:06:53.188Z,22.30
2019-05-25T14:09:26.037Z,22.20
2019-05-25T14:11:58.873Z,22.00
2019-05-25T14:14:31.663Z,21.80
2019-05-25T14:17:04.597Z,21.60
2019-05-25T14:19:41.148Z,21.40
2019-05-25T14:22:11.882Z,21.30
2019-05-25T14:24:44.690Z,21.20
2019-05-25T14:27:17.493Z,21.10
2019-05-25T14:29:50.304Z,20.90
2019-05-25T14:32:23.094Z,20.80
2019-05-25T14:34:56.284Z,20.70
2019-05-25T14:37:29.190Z,20.40
2019-05-25T14:40:01.978Z,20.00
2019-05-25T14:42:34.765Z,19.60
2019-05-25T14:45:07.508Z,19.30
2019-05-25T14:47:40.633Z,19.10
2019-05-25T14:50:13.343Z,18.90
2019-05-25T14:52:46.154Z,18.60
2019-05-25T14:55:19.004Z,18.40
2019-05-25T14:57:51.829Z,18.10
2019-05-25T15:00:24.603Z,17.90
2019-05-25T15:02:58.155Z,17.90
2019-05-25T15:05:31.013Z,17.80
2019-05-25T15:08:03.746Z,17.80
2019-05-25T15:10:37.363Z,17.50
2019-05-25T15:13:10.273Z,17.40
2019-05-25T15:15:43.120Z,17.10
2019-05-25T15:18:16.293Z,17.10
2019-05-25T15:20:49.056Z,17.00
2019-05-25T15:23:22.228Z,16.70
2019-05-25T15:25:55.133Z,16.40
2019-05-25T15:28:28.451Z,16.20
2019-05-25T15:31:01.779Z,15.80
2019-05-25T15:33:34.990Z,15.80
2019-05-25T15:36:08.131Z,15.60
2019-05-25T15:38:41.192Z,15.60
2019-05-25T15:41:13.973Z,15.50
2019-05-25T15:43:46.866Z,15.60
2019-05-25T15:46:20.159Z,15.70
2019-05-25T15:48:53.514Z,15.60
2019-05-25T15:51:26.397Z,15.50
2019-05-25T15:53:59.197Z,15.30
2019-05-25T15:56:32.423Z,15.40
2019-05-25T15:59:05.206Z,15.30
2019-05-25T16:01:37.944Z,15.50
2019-05-25T16:04:11.252Z,15.30
2019-05-25T16:06:44.069Z,15.50
2019-05-25T16:09:17.103Z,15.50
2019-05-25T16:11:49.821Z,15.70
2019-05-25T16:14:22.718Z,15.70
2019-05-25T16:16:55.929Z,15.90
2019-05-25T16:19:28.832Z,16.00
2019-05-25T16:22:01.698Z,16.00
2019-05-25T16:24:34.480Z,16.20
2019-05-25T16:27:07.195Z,16.30
2019-05-25T16:29:40.214Z,16.40
2019-05-25T16:32:12.963Z,16.40
2019-05-25T16:34:45.718Z,16.30
2019-05-25T16:37:18.737Z,16.30
2019-05-25T16:39:52.299Z,16.20
2019-05-25T16:42:25.697Z,16.20
2019-05-25T16:44:58.569Z,16.10
2019-05-25T16:47:31.424Z,16.10
2019-05-25T16:50:04.291Z,15.90
2019-05-25T16:52:37.019Z,15.70
2019-05-25T16:55:09.825Z,15.70
2019-05-25T16:57:43.068Z,15.80
2019-05-25T17:00:15.719Z,15.80
2019-05-25T17:02:48.466Z,15.80
2019-05-25T17:05:21.406Z,15.90
2019-05-25T17:07:54.619Z,16.00
2019-05-25T17:10:27.597Z,16.00
2019-05-25T17:13:00.571Z,15.80
2019-05-25T17:15:33.400Z,15.30
2019-05-25T17:18:07.644Z,15.40
2019-05-25T17:20:40.593Z,14.90
2019-05-25T17:23:13.270Z,15.20
2019-05-25T17:25:46.076Z,15.20
2019-05-25T17:28:18.711Z,15.10
2019-05-25T17:30:51.978Z,15.10
2019-05-25T17:33:24.966Z,15.00
2019-05-25T17:35:58.082Z,15.00
2019-05-25T17:38:31.138Z,15.00
2019-05-25T17:41:03.967Z,15.10
2019-05-25T17:43:36.862Z,15.40
2019-05-25T17:46:09.693Z,15.30
2019-05-25T17:48:42.468Z,15.20
2019-05-25T17:51:15.262Z,15.10
2019-05-25T17:53:48.068Z,15.00
2019-05-25T17:56:20.957Z,15.00
2019-05-25T17:58:53.854Z,14.80
2019-05-25T18:01:27.323Z,14.70
2019-05-25T18:04:06.983Z,14.30
2019-05-25T18:06:34.510Z,14.40
2019-05-25T18:09:07.380Z,14.40
2019-05-25T18:11:40.338Z,14.10
2019-05-25T18:14:13.039Z,14.10
2019-05-25T18:16:45.881Z,14.00
2019-05-25T18:19:18.619Z,14.10
2019-05-25T18:21:51.474Z,14.20
2019-05-25T18:24:24.317Z,14.30
2019-05-25T18:26:57.238Z,14.30
2019-05-25T18:29:29.931Z,14.20
2019-05-25T18:32:02.669Z,14.20
2019-05-25T18:34:35.568Z,14.20
2019-05-25T18:37:08.560Z,14.30
2019-05-25T18:39:41.525Z,14.50
2019-05-25T18:42:14.600Z,14.40
2019-05-25T18:44:47.923Z,14.10
2019-05-25T18:47:20.925Z,14.10
2019-05-25T18:49:53.678Z,14.00
2019-05-25T18:52:26.523Z,14.00
2019-05-25T18:54:59.780Z,14.00
2019-05-25T18:57:32.638Z,13.80
2019-05-25T19:00:05.359Z,13.80
2019-05-25T19:02:38.143Z,13.90
2019-05-25T19:05:11.013Z,13.80
2019-05-25T19:07:43.982Z,13.60
2019-05-25T19:10:16.904Z,13.40
2019-05-25T19:12:49.742Z,13.30
2019-05-25T19:15:22.739Z,13.30
2019-05-25T19:17:56.141Z,13.40
2019-05-25T19:20:29.013Z,13.50
2019-05-25T19:23:01.842Z,13.40
2019-05-25T19:25:34.638Z,13.40
2019-05-25T19:28:07.383Z,13.30
2019-05-25T19:30:40.150Z,13.00
2019-05-25T19:33:12.991Z,12.80
2019-05-25T19:35:46.220Z,12.90
2019-05-25T19:38:19.178Z,12.80
2019-05-25T19:40:52.102Z,12.70
2019-05-25T19:43:24.933Z,12.60
2019-05-25T19:45:57.993Z,12.70
2019-05-25T19:48:30.869Z,12.70
2019-05-25T19:51:03.608Z,12.70
2019-05-25T19:53:36.431Z,12.70
2019-05-25T19:56:09.169Z,12.70
2019-05-25T19:58:42.034Z,12.80
2019-05-25T20:01:14.807Z,13.00
2019-05-25T20:03:48.355Z,12.80
2019-05-25T20:06:21.159Z,12.60
2019-05-25T20:08:54.350Z,12.50
2019-05-25T20:11:27.114Z,12.30
2019-05-25T20:13:59.901Z,12.20
2019-05-25T20:16:32.697Z,12.30
2019-05-25T20:19:05.578Z,12.20
2019-05-25T20:21:38.244Z,12.00
2019-05-25T20:24:11.023Z,12.00
2019-05-25T20:26:43.808Z,12.10
2019-05-25T20:29:17.238Z,12.10
2019-05-25T20:31:49.962Z,12.40
2019-05-25T20:34:22.791Z,12.30
2019-05-25T20:36:55.758Z,12.20
2019-05-25T20:39:29.297Z,12.10
2019-05-25T20:42:02.796Z,12.30
2019-05-25T20:44:35.601Z,12.20
2019-05-25T20:47:08.534Z,12.20
2019-05-25T20:49:41.921Z,12.10
2019-05-25T20:52:15.231Z,12.00
2019-05-25T20:54:48.597Z,11.90
2019-05-25T20:57:21.497Z,11.90
2019-05-25T20:59:54.460Z,12.00
2019-05-25T21:02:27.498Z,12.10
2019-05-25T21:05:00.950Z,12.10
2019-05-25T21:07:35.874Z,12.20
2019-05-25T21:10:08.967Z,12.30
2019-05-25T21:12:41.848Z,12.40
2019-05-25T21:15:14.704Z,12.30
2019-05-25T21:17:48.154Z,12.20
2019-05-25T21:20:21.073Z,11.80
2019-05-25T21:22:54.486Z,11.90
2019-05-25T21:25:27.749Z,12.10
2019-05-25T21:28:00.958Z,12.20
2019-05-25T21:30:33.887Z,12.40
2019-05-25T21:33:06.828Z,12.30
2019-05-25T21:35:39.596Z,12.20
2019-05-25T21:38:12.790Z,12.10
2019-05-25T21:40:45.709Z,12.10
2019-05-25T21:43:18.528Z,12.00
2019-05-25T21:45:51.605Z,12.00
2019-05-25T21:48:24.988Z,12.00
2019-05-25T21:50:57.735Z,12.10
2019-05-25T21:53:30.682Z,12.20
2019-05-25T21:56:03.452Z,12.20
2019-05-25T21:58:36.224Z,12.30
2019-05-25T22:01:09.986Z,12.00
2019-05-25T22:03:42.949Z,11.80
2019-05-25T22:06:24.347Z,12.10
2019-05-25T22:08:50.528Z,12.30
2019-05-25T22:11:23.243Z,12.30
2019-05-25T22:13:56.980Z,12.40
2019-05-25T22:16:29.949Z,12.50
2019-05-25T22:19:02.807Z,12.50
2019-05-25T22:21:35.646Z,12.60
2019-05-25T22:24:08.858Z,12.70
2019-05-25T22:26:41.935Z,12.60
2019-05-25T22:29:14.978Z,12.70
2019-05-25T22:31:47.920Z,12.60
2019-05-25T22:34:20.768Z,12.20
2019-05-25T22:36:54.037Z,12.30
2019-05-25T22:39:26.929Z,12.60
2019-05-25T22:41:59.753Z,12.60
2019-05-25T22:44:32.594Z,12.50
2019-05-25T22:47:05.523Z,12.40
2019-05-25T22:49:38.879Z,12.50
2019-05-25T22:52:11.773Z,12.60
2019-05-25T22:54:44.697Z,12.60
2019-05-25T22:57:17.549Z,12.10
2019-05-25T22:59:50.403Z,12.10
2019-05-25T23:02:23.479Z,12.00
2019-05-25T23:04:56.360Z,11.90
2019-05-25T23:07:29.519Z,11.90
2019-05-25T23:10:02.370Z,12.10
2019-05-25T23:12:35.393Z,12.20
2019-05-25T23:15:08.792Z,12.20
2019-05-25T23:17:41.762Z,12.00
2019-05-25T23:20:14.484Z,11.90
2019-05-25T23:22:47.555Z,11.80
2019-05-25T23:25:21.493Z,11.70
2019-05-25T23:27:54.548Z,11.70
2019-05-25T23:30:27.455Z,11.90
2019-05-25T23:33:00.245Z,12.00
2019-05-25T23:35:33.910Z,12.10
2019-05-25T23:38:07.028Z,12.00
2019-05-25T23:40:39.796Z,12.20
2019-05-25T23:43:12.910Z,12.30
2019-05-25T23:45:46.244Z,12.30
2019-05-25T23:48:19.035Z,12.40
2019-05-25T23:50:52.103Z,12.40
2019-05-25T23:53:25.040Z,12.50
2019-05-25T23:55:58.000Z,12.60
2019-05-25T23:58:30.781Z,12.50
